sensor_id;sensor_type;location;lat;lon;timestamp;P1;durP1;ratioP1;P2;durP2;ratioP2
15142;SDS011;7672;50.834;6.286;2023-05-10T00:00:27;11.13;;;10.10;;
15142;SDS011;7672;50.834;6.286;2023-05-10T00:02:54;11.87;;;10.67;;
15142;SDS011;7672;50.834;6.286;2023-05-10T00:05:21;11.37;;;10.37;;
15142;SDS011;7672;50.834;6.286;2023-05-10T00:07:48;9.27;;;8.47;;
15142;SDS011;7672;50.834;6.286;2023-05-10T00:10:15;11.13;;;9.20;;
15142;SDS011;7672;50.834;6.286;2023-05-10T00:12:43;9.50;;;8.17;;
15142;SDS011;7672;50.834;6.286;2023-05-10T00:15:10;9.23;;;8.43;;
15142;SDS011;7672;50.834;6.286;2023-05-10T00:17:37;9.63;;;8.73;;
15142;SDS011;7672;50.834;6.286;2023-05-10T00:20:04;10.40;;;8.83;;
15142;SDS011;7672;50.834;6.286;2023-05-10T00:22:32;10.87;;;9.77;;
15142;SDS011;7672;50.834;6.286;2023-05-10T00:25:00;12.17;;;10.93;;
15142;SDS011;7672;50.834;6.286;2023-05-10T00:27:27;13.73;;;11.73;;
15142;SDS011;7672;50.834;6.286;2023-05-10T00:29:53;14.00;;;12.63;;
15142;SDS011;7672;50.834;6.286;2023-05-10T00:32:20;15.03;;;13.53;;
15142;SDS011;7672;50.834;6.286;2023-05-10T00:34:48;17.77;;;14.93;;
15142;SDS011;7672;50.834;6.286;2023-05-10T00:37:14;15.47;;;13.87;;
15142;SDS011;7672;50.834;6.286;2023-05-10T00:39:42;15.50;;;14.00;;
15142;SDS011;7672;50.834;6.286;2023-05-10T00:42:10;16.47;;;13.93;;
15142;SDS011;7672;50.834;6.286;2023-05-10T00:44:37;16.60;;;14.37;;
15142;SDS011;7672;50.834;6.286;2023-05-10T00:47:04;16.97;;;13.67;;
15142;SDS011;7672;50.834;6.286;2023-05-10T00:49:32;15.80;;;13.93;;
15142;SDS011;7672;50.834;6.286;2023-05-10T00:51:59;15.43;;;13.83;;
15142;SDS011;7672;50.834;6.286;2023-05-10T00:54:28;15.17;;;13.57;;
15142;SDS011;7672;50.834;6.286;2023-05-10T00:56:56;17.37;;;13.33;;
15142;SDS011;7672;50.834;6.286;2023-05-10T00:59:23;15.20;;;13.50;;
15142;SDS011;7672;50.834;6.286;2023-05-10T01:01:50;19.10;;;14.17;;
15142;SDS011;7672;50.834;6.286;2023-05-10T01:04:19;16.97;;;15.27;;
15142;SDS011;7672;50.834;6.286;2023-05-10T01:06:52;20.37;;;15.37;;
15142;SDS011;7672;50.834;6.286;2023-05-10T01:09:20;17.60;;;15.70;;
15142;SDS011;7672;50.834;6.286;2023-05-10T01:11:48;17.40;;;15.60;;
15142;SDS011;7672;50.834;6.286;2023-05-10T01:14:16;20.30;;;17.40;;
15142;SDS011;7672;50.834;6.286;2023-05-10T01:16:46;21.07;;;17.87;;
15142;SDS011;7672;50.834;6.286;2023-05-10T01:19:19;23.80;;;19.57;;
15142;SDS011;7672;50.834;6.286;2023-05-10T01:22:05;20.40;;;18.07;;
15142;SDS011;7672;50.834;6.286;2023-05-10T01:34:08;17.30;;;15.50;;
15142;SDS011;7672;50.834;6.286;2023-05-10T01:36:51;15.90;;;14.20;;
15142;SDS011;7672;50.834;6.286;2023-05-10T01:39:38;16.27;;;14.60;;
15142;SDS011;7672;50.834;6.286;2023-05-10T01:42:37;16.90;;;14.67;;
15142;SDS011;7672;50.834;6.286;2023-05-10T01:45:20;15.80;;;13.03;;
15142;SDS011;7672;50.834;6.286;2023-05-10T01:48:09;15.37;;;13.83;;
15142;SDS011;7672;50.834;6.286;2023-05-10T01:50:38;14.30;;;12.83;;
15142;SDS011;7672;50.834;6.286;2023-05-10T01:53:10;14.30;;;12.40;;
15142;SDS011;7672;50.834;6.286;2023-05-10T01:55:43;14.73;;;13.17;;
15142;SDS011;7672;50.834;6.286;2023-05-10T01:58:17;15.60;;;12.93;;
15142;SDS011;7672;50.834;6.286;2023-05-10T02:00:56;14.53;;;13.13;;
15142;SDS011;7672;50.834;6.286;2023-05-10T02:03:27;14.10;;;12.67;;
15142;SDS011;7672;50.834;6.286;2023-05-10T02:05:57;14.10;;;12.63;;
15142;SDS011;7672;50.834;6.286;2023-05-10T02:08:26;15.07;;;12.93;;
15142;SDS011;7672;50.834;6.286;2023-05-10T02:10:54;15.50;;;14.10;;
15142;SDS011;7672;50.834;6.286;2023-05-10T02:13:23;15.47;;;13.83;;
15142;SDS011;7672;50.834;6.286;2023-05-10T02:15:53;15.77;;;13.23;;
15142;SDS011;7672;50.834;6.286;2023-05-10T02:18:22;15.30;;;13.70;;
15142;SDS011;7672;50.834;6.286;2023-05-10T02:20:51;15.47;;;13.50;;
15142;SDS011;7672;50.834;6.286;2023-05-10T02:23:21;15.00;;;13.13;;
15142;SDS011;7672;50.834;6.286;2023-05-10T02:25:51;15.53;;;13.93;;
15142;SDS011;7672;50.834;6.286;2023-05-10T02:28:21;15.80;;;14.07;;
15142;SDS011;7672;50.834;6.286;2023-05-10T02:30:52;16.30;;;13.67;;
15142;SDS011;7672;50.834;6.286;2023-05-10T02:33:21;14.63;;;13.23;;
15142;SDS011;7672;50.834;6.286;2023-05-10T02:35:51;14.37;;;12.87;;
15142;SDS011;7672;50.834;6.286;2023-05-10T02:38:20;14.13;;;12.77;;
15142;SDS011;7672;50.834;6.286;2023-05-10T02:40:49;13.93;;;12.47;;
15142;SDS011;7672;50.834;6.286;2023-05-10T02:43:18;13.50;;;12.20;;
15142;SDS011;7672;50.834;6.286;2023-05-10T02:45:48;13.73;;;11.57;;
15142;SDS011;7672;50.834;6.286;2023-05-10T02:48:16;13.90;;;12.57;;
15142;SDS011;7672;50.834;6.286;2023-05-10T02:50:44;13.67;;;11.67;;
15142;SDS011;7672;50.834;6.286;2023-05-10T02:53:15;13.10;;;11.00;;
15142;SDS011;7672;50.834;6.286;2023-05-10T02:55:52;14.57;;;11.73;;
15142;SDS011;7672;50.834;6.286;2023-05-10T02:58:27;14.97;;;10.83;;
15142;SDS011;7672;50.834;6.286;2023-05-10T03:00:54;13.40;;;11.53;;
15142;SDS011;7672;50.834;6.286;2023-05-10T03:03:21;11.93;;;10.83;;
15142;SDS011;7672;50.834;6.286;2023-05-10T03:05:49;12.67;;;11.30;;
15142;SDS011;7672;50.834;6.286;2023-05-10T03:08:17;12.37;;;11.10;;
15142;SDS011;7672;50.834;6.286;2023-05-10T03:10:55;14.37;;;11.50;;
15142;SDS011;7672;50.834;6.286;2023-05-10T03:13:42;15.67;;;12.43;;
15142;SDS011;7672;50.834;6.286;2023-05-10T03:16:34;17.37;;;13.30;;
15142;SDS011;7672;50.834;6.286;2023-05-10T03:19:30;15.00;;;13.20;;
15142;SDS011;7672;50.834;6.286;2023-05-10T03:22:27;17.23;;;13.90;;
15142;SDS011;7672;50.834;6.286;2023-05-10T03:25:04;19.60;;;15.33;;
15142;SDS011;7672;50.834;6.286;2023-05-10T03:27:35;19.43;;;14.60;;
15142;SDS011;7672;50.834;6.286;2023-05-10T03:30:05;19.60;;;14.70;;
15142;SDS011;7672;50.834;6.286;2023-05-10T03:32:37;20.17;;;15.00;;
15142;SDS011;7672;50.834;6.286;2023-05-10T03:35:11;22.50;;;15.33;;
15142;SDS011;7672;50.834;6.286;2023-05-10T03:37:40;23.37;;;15.23;;
15142;SDS011;7672;50.834;6.286;2023-05-10T03:40:08;19.43;;;15.30;;
15142;SDS011;7672;50.834;6.286;2023-05-10T03:42:37;17.87;;;14.47;;
15142;SDS011;7672;50.834;6.286;2023-05-10T03:45:05;17.77;;;15.83;;
15142;SDS011;7672;50.834;6.286;2023-05-10T03:47:33;16.83;;;14.97;;
15142;SDS011;7672;50.834;6.286;2023-05-10T03:50:00;22.53;;;15.77;;
15142;SDS011;7672;50.834;6.286;2023-05-10T03:52:29;18.53;;;15.17;;
15142;SDS011;7672;50.834;6.286;2023-05-10T03:54:56;19.17;;;14.67;;
15142;SDS011;7672;50.834;6.286;2023-05-10T03:57:23;21.30;;;14.87;;
15142;SDS011;7672;50.834;6.286;2023-05-10T03:59:51;16.70;;;14.20;;
15142;SDS011;7672;50.834;6.286;2023-05-10T04:02:18;16.13;;;13.53;;
15142;SDS011;7672;50.834;6.286;2023-05-10T04:04:44;17.17;;;13.40;;
15142;SDS011;7672;50.834;6.286;2023-05-10T04:07:11;20.63;;;14.70;;
15142;SDS011;7672;50.834;6.286;2023-05-10T04:09:39;17.83;;;13.43;;
15142;SDS011;7672;50.834;6.286;2023-05-10T04:12:06;19.10;;;14.23;;
15142;SDS011;7672;50.834;6.286;2023-05-10T04:14:36;18.67;;;13.47;;
15142;SDS011;7672;50.834;6.286;2023-05-10T04:17:03;18.80;;;14.57;;
15142;SDS011;7672;50.834;6.286;2023-05-10T04:19:30;16.47;;;12.97;;
15142;SDS011;7672;50.834;6.286;2023-05-10T04:21:58;16.90;;;12.90;;
15142;SDS011;7672;50.834;6.286;2023-05-10T04:24:25;15.80;;;13.43;;
15142;SDS011;7672;50.834;6.286;2023-05-10T04:26:53;17.20;;;13.40;;
15142;SDS011;7672;50.834;6.286;2023-05-10T04:29:23;16.47;;;12.67;;
15142;SDS011;7672;50.834;6.286;2023-05-10T04:31:50;15.97;;;13.07;;
15142;SDS011;7672;50.834;6.286;2023-05-10T04:34:17;18.90;;;12.10;;
15142;SDS011;7672;50.834;6.286;2023-05-10T04:36:44;15.00;;;12.57;;
15142;SDS011;7672;50.834;6.286;2023-05-10T04:39:11;15.13;;;13.47;;
15142;SDS011;7672;50.834;6.286;2023-05-10T04:41:39;14.77;;;12.97;;
15142;SDS011;7672;50.834;6.286;2023-05-10T04:44:06;15.40;;;12.73;;
15142;SDS011;7672;50.834;6.286;2023-05-10T04:46:33;16.40;;;12.57;;
15142;SDS011;7672;50.834;6.286;2023-05-10T04:49:01;16.23;;;12.13;;
15142;SDS011;7672;50.834;6.286;2023-05-10T04:51:28;15.47;;;13.03;;
15142;SDS011;7672;50.834;6.286;2023-05-10T04:53:55;15.73;;;12.37;;
15142;SDS011;7672;50.834;6.286;2023-05-10T04:56:32;19.20;;;13.57;;
15142;SDS011;7672;50.834;6.286;2023-05-10T04:58:59;17.17;;;13.90;;
15142;SDS011;7672;50.834;6.286;2023-05-10T05:01:26;17.27;;;13.83;;
15142;SDS011;7672;50.834;6.286;2023-05-10T05:03:53;18.20;;;14.37;;
15142;SDS011;7672;50.834;6.286;2023-05-10T05:06:21;19.67;;;14.60;;
15142;SDS011;7672;50.834;6.286;2023-05-10T05:08:48;16.37;;;13.40;;
15142;SDS011;7672;50.834;6.286;2023-05-10T05:11:16;17.10;;;13.70;;
15142;SDS011;7672;50.834;6.286;2023-05-10T05:13:44;17.67;;;13.67;;
15142;SDS011;7672;50.834;6.286;2023-05-10T05:16:11;18.10;;;13.10;;
15142;SDS011;7672;50.834;6.286;2023-05-10T05:18:38;18.17;;;13.03;;
15142;SDS011;7672;50.834;6.286;2023-05-10T05:21:15;21.20;;;13.67;;
15142;SDS011;7672;50.834;6.286;2023-05-10T05:23:43;19.93;;;14.27;;
15142;SDS011;7672;50.834;6.286;2023-05-10T05:26:11;22.57;;;13.50;;
15142;SDS011;7672;50.834;6.286;2023-05-10T05:28:39;19.47;;;14.57;;
15142;SDS011;7672;50.834;6.286;2023-05-10T05:31:06;21.63;;;15.00;;
15142;SDS011;7672;50.834;6.286;2023-05-10T05:33:34;20.80;;;14.23;;
15142;SDS011;7672;50.834;6.286;2023-05-10T05:36:02;18.83;;;14.07;;
15142;SDS011;7672;50.834;6.286;2023-05-10T05:38:31;17.97;;;13.80;;
15142;SDS011;7672;50.834;6.286;2023-05-10T05:40:58;17.30;;;14.53;;
15142;SDS011;7672;50.834;6.286;2023-05-10T05:43:25;18.70;;;13.17;;
15142;SDS011;7672;50.834;6.286;2023-05-10T05:45:52;19.30;;;14.53;;
15142;SDS011;7672;50.834;6.286;2023-05-10T05:48:24;25.07;;;15.80;;
15142;SDS011;7672;50.834;6.286;2023-05-10T05:50:54;20.20;;;14.33;;
15142;SDS011;7672;50.834;6.286;2023-05-10T05:53:22;21.37;;;14.17;;
15142;SDS011;7672;50.834;6.286;2023-05-10T05:55:53;17.27;;;14.20;;
15142;SDS011;7672;50.834;6.286;2023-05-10T05:58:25;22.97;;;14.37;;
15142;SDS011;7672;50.834;6.286;2023-05-10T06:00:53;17.33;;;13.50;;
15142;SDS011;7672;50.834;6.286;2023-05-10T06:03:20;17.57;;;12.90;;
15142;SDS011;7672;50.834;6.286;2023-05-10T06:05:47;21.80;;;13.33;;
15142;SDS011;7672;50.834;6.286;2023-05-10T06:08:14;22.37;;;13.30;;
15142;SDS011;7672;50.834;6.286;2023-05-10T06:10:41;16.43;;;12.10;;
15142;SDS011;7672;50.834;6.286;2023-05-10T06:13:08;14.37;;;10.87;;
15142;SDS011;7672;50.834;6.286;2023-05-10T06:15:36;16.80;;;9.87;;
15142;SDS011;7672;50.834;6.286;2023-05-10T06:18:03;17.00;;;10.63;;
15142;SDS011;7672;50.834;6.286;2023-05-10T06:20:30;12.83;;;9.60;;
15142;SDS011;7672;50.834;6.286;2023-05-10T06:22:58;13.13;;;9.40;;
15142;SDS011;7672;50.834;6.286;2023-05-10T06:25:25;14.60;;;9.13;;
15142;SDS011;7672;50.834;6.286;2023-05-10T06:27:52;11.97;;;8.33;;
15142;SDS011;7672;50.834;6.286;2023-05-10T06:30:24;11.83;;;8.10;;
15142;SDS011;7672;50.834;6.286;2023-05-10T06:32:56;9.83;;;7.10;;
15142;SDS011;7672;50.834;6.286;2023-05-10T06:35:23;7.30;;;6.40;;
15142;SDS011;7672;50.834;6.286;2023-05-10T06:37:50;8.57;;;6.83;;
15142;SDS011;7672;50.834;6.286;2023-05-10T06:40:17;6.27;;;5.27;;
15142;SDS011;7672;50.834;6.286;2023-05-10T06:42:47;8.43;;;5.57;;
15142;SDS011;7672;50.834;6.286;2023-05-10T06:45:14;6.73;;;5.60;;
15142;SDS011;7672;50.834;6.286;2023-05-10T06:47:43;4.80;;;4.30;;
15142;SDS011;7672;50.834;6.286;2023-05-10T06:50:10;5.43;;;4.60;;
15142;SDS011;7672;50.834;6.286;2023-05-10T06:52:38;5.93;;;5.10;;
15142;SDS011;7672;50.834;6.286;2023-05-10T06:55:06;5.50;;;4.07;;
15142;SDS011;7672;50.834;6.286;2023-05-10T06:57:34;5.00;;;3.50;;
15142;SDS011;7672;50.834;6.286;2023-05-10T07:00:02;4.03;;;3.63;;
15142;SDS011;7672;50.834;6.286;2023-05-10T07:02:32;3.73;;;3.43;;
15142;SDS011;7672;50.834;6.286;2023-05-10T07:04:59;4.47;;;3.80;;
15142;SDS011;7672;50.834;6.286;2023-05-10T07:07:29;5.27;;;4.07;;
15142;SDS011;7672;50.834;6.286;2023-05-10T07:09:56;4.70;;;4.10;;
15142;SDS011;7672;50.834;6.286;2023-05-10T07:12:24;4.90;;;4.20;;
15142;SDS011;7672;50.834;6.286;2023-05-10T07:14:52;8.10;;;3.43;;
15142;SDS011;7672;50.834;6.286;2023-05-10T07:17:19;10.60;;;3.50;;
15142;SDS011;7672;50.834;6.286;2023-05-10T07:19:46;6.17;;;2.83;;
15142;SDS011;7672;50.834;6.286;2023-05-10T07:22:14;4.60;;;2.93;;
15142;SDS011;7672;50.834;6.286;2023-05-10T07:24:42;4.53;;;2.87;;
15142;SDS011;7672;50.834;6.286;2023-05-10T07:27:10;5.67;;;3.20;;
15142;SDS011;7672;50.834;6.286;2023-05-10T07:29:37;3.03;;;2.73;;
15142;SDS011;7672;50.834;6.286;2023-05-10T07:32:04;4.07;;;2.70;;
15142;SDS011;7672;50.834;6.286;2023-05-10T07:34:32;3.83;;;3.30;;
15142;SDS011;7672;50.834;6.286;2023-05-10T07:36:59;3.23;;;2.93;;
15142;SDS011;7672;50.834;6.286;2023-05-10T07:39:27;6.37;;;3.13;;
15142;SDS011;7672;50.834;6.286;2023-05-10T07:41:57;4.50;;;3.20;;
15142;SDS011;7672;50.834;6.286;2023-05-10T07:44:24;3.63;;;3.33;;
15142;SDS011;7672;50.834;6.286;2023-05-10T07:46:51;3.20;;;2.90;;
15142;SDS011;7672;50.834;6.286;2023-05-10T07:49:19;3.33;;;3.03;;
15142;SDS011;7672;50.834;6.286;2023-05-10T07:51:46;6.23;;;4.10;;
15142;SDS011;7672;50.834;6.286;2023-05-10T07:54:13;4.77;;;4.37;;
15142;SDS011;7672;50.834;6.286;2023-05-10T07:56:40;4.73;;;4.27;;
15142;SDS011;7672;50.834;6.286;2023-05-10T07:59:14;5.93;;;5.37;;
15142;SDS011;7672;50.834;6.286;2023-05-10T08:01:44;8.23;;;5.73;;
15142;SDS011;7672;50.834;6.286;2023-05-10T08:04:11;9.33;;;6.53;;
15142;SDS011;7672;50.834;6.286;2023-05-10T08:06:39;7.77;;;6.83;;
15142;SDS011;7672;50.834;6.286;2023-05-10T08:09:07;13.80;;;10.67;;
15142;SDS011;7672;50.834;6.286;2023-05-10T08:11:34;17.20;;;12.03;;
15142;SDS011;7672;50.834;6.286;2023-05-10T08:14:01;17.30;;;12.60;;
15142;SDS011;7672;50.834;6.286;2023-05-10T08:16:28;17.60;;;14.17;;
15142;SDS011;7672;50.834;6.286;2023-05-10T08:18:56;20.57;;;14.23;;
15142;SDS011;7672;50.834;6.286;2023-05-10T08:21:23;16.73;;;13.60;;
15142;SDS011;7672;50.834;6.286;2023-05-10T08:23:51;21.57;;;14.53;;
15142;SDS011;7672;50.834;6.286;2023-05-10T08:26:18;20.77;;;15.93;;
15142;SDS011;7672;50.834;6.286;2023-05-10T08:28:45;22.03;;;15.20;;
15142;SDS011;7672;50.834;6.286;2023-05-10T08:31:12;22.30;;;16.53;;
15142;SDS011;7672;50.834;6.286;2023-05-10T08:33:40;22.57;;;16.50;;
15142;SDS011;7672;50.834;6.286;2023-05-10T08:36:09;25.20;;;16.17;;
15142;SDS011;7672;50.834;6.286;2023-05-10T08:38:37;23.97;;;17.50;;
15142;SDS011;7672;50.834;6.286;2023-05-10T08:41:04;22.27;;;17.20;;
15142;SDS011;7672;50.834;6.286;2023-05-10T08:43:32;22.53;;;17.20;;
15142;SDS011;7672;50.834;6.286;2023-05-10T08:46:02;23.07;;;17.23;;
15142;SDS011;7672;50.834;6.286;2023-05-10T08:48:34;22.07;;;16.00;;
15142;SDS011;7672;50.834;6.286;2023-05-10T08:51:02;20.00;;;14.63;;
15142;SDS011;7672;50.834;6.286;2023-05-10T08:53:30;16.57;;;13.03;;
15142;SDS011;7672;50.834;6.286;2023-05-10T08:56:02;12.43;;;10.07;;
15142;SDS011;7672;50.834;6.286;2023-05-10T08:58:30;11.93;;;9.13;;
15142;SDS011;7672;50.834;6.286;2023-05-10T09:00:57;9.10;;;7.57;;
15142;SDS011;7672;50.834;6.286;2023-05-10T09:03:25;9.70;;;7.97;;
15142;SDS011;7672;50.834;6.286;2023-05-10T09:05:53;9.47;;;7.43;;
15142;SDS011;7672;50.834;6.286;2023-05-10T09:08:22;8.27;;;7.33;;
15142;SDS011;7672;50.834;6.286;2023-05-10T09:10:56;7.67;;;6.30;;
15142;SDS011;7672;50.834;6.286;2023-05-10T09:13:24;6.70;;;5.47;;
15142;SDS011;7672;50.834;6.286;2023-05-10T09:15:52;6.80;;;4.67;;
15142;SDS011;7672;50.834;6.286;2023-05-10T09:18:19;5.00;;;3.53;;
15142;SDS011;7672;50.834;6.286;2023-05-10T09:20:47;3.70;;;3.27;;
15142;SDS011;7672;50.834;6.286;2023-05-10T09:23:15;3.90;;;3.33;;
15142;SDS011;7672;50.834;6.286;2023-05-10T09:25:42;3.77;;;3.00;;
15142;SDS011;7672;50.834;6.286;2023-05-10T09:28:09;2.87;;;2.67;;
15142;SDS011;7672;50.834;6.286;2023-05-10T09:30:37;2.97;;;2.73;;
15142;SDS011;7672;50.834;6.286;2023-05-10T09:33:05;3.17;;;2.87;;
15142;SDS011;7672;50.834;6.286;2023-05-10T09:35:32;3.03;;;2.73;;
15142;SDS011;7672;50.834;6.286;2023-05-10T09:38:03;5.00;;;3.93;;
15142;SDS011;7672;50.834;6.286;2023-05-10T09:40:31;4.13;;;3.73;;
15142;SDS011;7672;50.834;6.286;2023-05-10T09:45:37;3.30;;;3.00;;
15142;SDS011;7672;50.834;6.286;2023-05-10T09:48:04;3.70;;;3.40;;
15142;SDS011;7672;50.834;6.286;2023-05-10T09:50:33;2.73;;;2.53;;
15142;SDS011;7672;50.834;6.286;2023-05-10T09:53:01;2.53;;;2.33;;
15142;SDS011;7672;50.834;6.286;2023-05-10T09:58:07;2.30;;;2.10;;
15142;SDS011;7672;50.834;6.286;2023-05-10T10:00:38;2.13;;;1.93;;
15142;SDS011;7672;50.834;6.286;2023-05-10T10:03:11;1.97;;;1.87;;
15142;SDS011;7672;50.834;6.286;2023-05-10T10:05:41;2.63;;;1.97;;
15142;SDS011;7672;50.834;6.286;2023-05-10T10:08:10;2.00;;;1.90;;
15142;SDS011;7672;50.834;6.286;2023-05-10T10:10:38;1.80;;;1.70;;
15142;SDS011;7672;50.834;6.286;2023-05-10T10:13:12;2.00;;;1.90;;
15142;SDS011;7672;50.834;6.286;2023-05-10T10:15:40;2.17;;;2.07;;
15142;SDS011;7672;50.834;6.286;2023-05-10T10:18:12;2.00;;;1.90;;
15142;SDS011;7672;50.834;6.286;2023-05-10T10:20:41;2.30;;;2.00;;
15142;SDS011;7672;50.834;6.286;2023-05-10T10:23:09;2.50;;;2.30;;
15142;SDS011;7672;50.834;6.286;2023-05-10T10:25:36;2.23;;;2.13;;
15142;SDS011;7672;50.834;6.286;2023-05-10T10:28:10;2.20;;;2.10;;
15142;SDS011;7672;50.834;6.286;2023-05-10T10:30:53;2.57;;;2.37;;
15142;SDS011;7672;50.834;6.286;2023-05-10T10:36:25;2.23;;;2.03;;
15142;SDS011;7672;50.834;6.286;2023-05-10T10:38:56;2.30;;;2.10;;
15142;SDS011;7672;50.834;6.286;2023-05-10T10:46:58;2.47;;;1.90;;
15142;SDS011;7672;50.834;6.286;2023-05-10T10:49:26;1.53;;;1.43;;
15142;SDS011;7672;50.834;6.286;2023-05-10T10:55:00;1.63;;;1.53;;
15142;SDS011;7672;50.834;6.286;2023-05-10T10:57:54;1.60;;;1.50;;
15142;SDS011;7672;50.834;6.286;2023-05-10T11:03:06;1.43;;;1.33;;
15142;SDS011;7672;50.834;6.286;2023-05-10T11:05:45;1.87;;;1.30;;
15142;SDS011;7672;50.834;6.286;2023-05-10T11:08:27;1.93;;;1.67;;
15142;SDS011;7672;50.834;6.286;2023-05-10T11:13:30;1.70;;;1.60;;
15142;SDS011;7672;50.834;6.286;2023-05-10T11:19:02;2.50;;;1.20;;
15142;SDS011;7672;50.834;6.286;2023-05-10T11:21:43;1.67;;;1.57;;
15142;SDS011;7672;50.834;6.286;2023-05-10T11:24:14;1.90;;;1.80;;
15142;SDS011;7672;50.834;6.286;2023-05-10T11:26:43;4.03;;;1.60;;
15142;SDS011;7672;50.834;6.286;2023-05-10T11:29:12;1.92;;;1.80;;
15142;SDS011;7672;50.834;6.286;2023-05-10T11:31:43;1.77;;;1.67;;
15142;SDS011;7672;50.834;6.286;2023-05-10T11:34:11;1.73;;;1.63;;
15142;SDS011;7672;50.834;6.286;2023-05-10T11:37:01;2.05;;;1.80;;
15142;SDS011;7672;50.834;6.286;2023-05-10T11:39:29;1.83;;;1.73;;
15142;SDS011;7672;50.834;6.286;2023-05-10T11:41:58;2.38;;;1.67;;
15142;SDS011;7672;50.834;6.286;2023-05-10T11:44:29;2.38;;;2.00;;
15142;SDS011;7672;50.834;6.286;2023-05-10T11:47:01;2.67;;;1.58;;
15142;SDS011;7672;50.834;6.286;2023-05-10T11:49:28;2.30;;;2.10;;
15142;SDS011;7672;50.834;6.286;2023-05-10T11:52:08;1.73;;;1.63;;
15142;SDS011;7672;50.834;6.286;2023-05-10T11:54:37;1.65;;;1.55;;
15142;SDS011;7672;50.834;6.286;2023-05-10T11:57:12;3.15;;;1.70;;
15142;SDS011;7672;50.834;6.286;2023-05-10T11:59:39;1.60;;;1.50;;
15142;SDS011;7672;50.834;6.286;2023-05-10T12:02:08;1.80;;;1.70;;
15142;SDS011;7672;50.834;6.286;2023-05-10T12:04:36;1.83;;;1.73;;
15142;SDS011;7672;50.834;6.286;2023-05-10T12:07:04;1.50;;;1.40;;
15142;SDS011;7672;50.834;6.286;2023-05-10T12:09:31;1.70;;;1.60;;
15142;SDS011;7672;50.834;6.286;2023-05-10T12:12:09;2.75;;;1.73;;
15142;SDS011;7672;50.834;6.286;2023-05-10T12:14:41;2.20;;;2.00;;
15142;SDS011;7672;50.834;6.286;2023-05-10T12:17:12;1.90;;;1.80;;
15142;SDS011;7672;50.834;6.286;2023-05-10T12:19:39;2.05;;;1.95;;
15142;SDS011;7672;50.834;6.286;2023-05-10T12:22:07;2.50;;;2.30;;
15142;SDS011;7672;50.834;6.286;2023-05-10T12:24:37;2.05;;;1.95;;
15142;SDS011;7672;50.834;6.286;2023-05-10T12:27:05;2.35;;;2.17;;
15142;SDS011;7672;50.834;6.286;2023-05-10T12:29:34;3.72;;;2.40;;
15142;SDS011;7672;50.834;6.286;2023-05-10T12:32:02;2.25;;;2.15;;
15142;SDS011;7672;50.834;6.286;2023-05-10T12:34:30;2.30;;;2.10;;
15142;SDS011;7672;50.834;6.286;2023-05-10T12:37:04;2.38;;;2.20;;
15142;SDS011;7672;50.834;6.286;2023-05-10T12:39:38;2.30;;;2.20;;
15142;SDS011;7672;50.834;6.286;2023-05-10T12:42:10;3.58;;;3.28;;
15142;SDS011;7672;50.834;6.286;2023-05-10T12:44:38;3.65;;;2.80;;
15142;SDS011;7672;50.834;6.286;2023-05-10T12:47:05;3.45;;;3.20;;
15142;SDS011;7672;50.834;6.286;2023-05-10T12:49:33;3.92;;;3.63;;
15142;SDS011;7672;50.834;6.286;2023-05-10T12:52:00;4.03;;;3.17;;
15142;SDS011;7672;50.834;6.286;2023-05-10T12:54:28;3.17;;;2.97;;
15142;SDS011;7672;50.834;6.286;2023-05-10T12:56:55;3.58;;;3.28;;
15142;SDS011;7672;50.834;6.286;2023-05-10T12:59:21;6.35;;;3.47;;
15142;SDS011;7672;50.834;6.286;2023-05-10T13:01:49;4.40;;;3.95;;
15142;SDS011;7672;50.834;6.286;2023-05-10T13:04:16;5.03;;;4.25;;
15142;SDS011;7672;50.834;6.286;2023-05-10T13:06:43;4.20;;;3.90;;
15142;SDS011;7672;50.834;6.286;2023-05-10T13:09:10;5.55;;;3.92;;
15142;SDS011;7672;50.834;6.286;2023-05-10T13:11:37;4.30;;;3.95;;
15142;SDS011;7672;50.834;6.286;2023-05-10T13:14:04;5.57;;;3.60;;
15142;SDS011;7672;50.834;6.286;2023-05-10T13:16:32;4.78;;;3.55;;
15142;SDS011;7672;50.834;6.286;2023-05-10T13:18:59;4.15;;;3.85;;
15142;SDS011;7672;50.834;6.286;2023-05-10T13:21:26;3.72;;;3.42;;
15142;SDS011;7672;50.834;6.286;2023-05-10T13:23:54;4.30;;;4.00;;
15142;SDS011;7672;50.834;6.286;2023-05-10T13:26:21;3.53;;;3.13;;
15142;SDS011;7672;50.834;6.286;2023-05-10T13:28:48;4.10;;;3.40;;
15142;SDS011;7672;50.834;6.286;2023-05-10T13:31:17;3.70;;;3.28;;
15142;SDS011;7672;50.834;6.286;2023-05-10T13:33:44;3.67;;;3.38;;
15142;SDS011;7672;50.834;6.286;2023-05-10T13:36:11;4.45;;;3.40;;
15142;SDS011;7672;50.834;6.286;2023-05-10T13:38:38;3.97;;;3.58;;
15142;SDS011;7672;50.834;6.286;2023-05-10T13:41:05;3.97;;;3.40;;
15142;SDS011;7672;50.834;6.286;2023-05-10T13:43:32;3.40;;;3.20;;
15142;SDS011;7672;50.834;6.286;2023-05-10T13:46:01;4.43;;;4.00;;
15142;SDS011;7672;50.834;6.286;2023-05-10T13:48:29;6.13;;;3.40;;
15142;SDS011;7672;50.834;6.286;2023-05-10T13:50:56;3.78;;;3.47;;
15142;SDS011;7672;50.834;6.286;2023-05-10T13:53:23;3.60;;;3.30;;
15142;SDS011;7672;50.834;6.286;2023-05-10T13:55:50;3.65;;;3.33;;
15142;SDS011;7672;50.834;6.286;2023-05-10T13:58:17;3.58;;;3.28;;
15142;SDS011;7672;50.834;6.286;2023-05-10T14:00:44;3.20;;;2.90;;
15142;SDS011;7672;50.834;6.286;2023-05-10T14:03:11;4.03;;;3.13;;
15142;SDS011;7672;50.834;6.286;2023-05-10T14:05:38;3.45;;;3.10;;
15142;SDS011;7672;50.834;6.286;2023-05-10T14:08:05;4.32;;;3.92;;
15142;SDS011;7672;50.834;6.286;2023-05-10T14:10:33;3.97;;;3.28;;
15142;SDS011;7672;50.834;6.286;2023-05-10T14:13:00;3.75;;;3.47;;
15142;SDS011;7672;50.834;6.286;2023-05-10T14:15:27;3.47;;;3.17;;
15142;SDS011;7672;50.834;6.286;2023-05-10T14:17:54;4.03;;;3.63;;
15142;SDS011;7672;50.834;6.286;2023-05-10T14:20:21;4.03;;;3.58;;
15142;SDS011;7672;50.834;6.286;2023-05-10T14:22:48;3.20;;;2.97;;
15142;SDS011;7672;50.834;6.286;2023-05-10T14:25:15;3.75;;;3.45;;
15142;SDS011;7672;50.834;6.286;2023-05-10T14:27:43;4.40;;;3.92;;
15142;SDS011;7672;50.834;6.286;2023-05-10T14:30:10;4.10;;;3.70;;
15142;SDS011;7672;50.834;6.286;2023-05-10T14:32:38;5.07;;;4.57;;
15142;SDS011;7672;50.834;6.286;2023-05-10T14:35:05;5.13;;;4.70;;
15142;SDS011;7672;50.834;6.286;2023-05-10T14:37:33;4.55;;;4.15;;
15142;SDS011;7672;50.834;6.286;2023-05-10T14:40:00;4.72;;;4.32;;
15142;SDS011;7672;50.834;6.286;2023-05-10T14:42:30;4.10;;;3.75;;
15142;SDS011;7672;50.834;6.286;2023-05-10T14:44:57;4.40;;;3.97;;
15142;SDS011;7672;50.834;6.286;2023-05-10T14:47:24;4.07;;;3.70;;
15142;SDS011;7672;50.834;6.286;2023-05-10T14:49:51;4.40;;;3.42;;
15142;SDS011;7672;50.834;6.286;2023-05-10T14:52:18;4.28;;;3.63;;
15142;SDS011;7672;50.834;6.286;2023-05-10T14:54:45;3.13;;;2.88;;
15142;SDS011;7672;50.834;6.286;2023-05-10T14:57:12;3.20;;;2.90;;
15142;SDS011;7672;50.834;6.286;2023-05-10T14:59:39;3.33;;;2.90;;
15142;SDS011;7672;50.834;6.286;2023-05-10T15:02:07;3.55;;;3.25;;
15142;SDS011;7672;50.834;6.286;2023-05-10T15:04:35;5.18;;;2.65;;
15142;SDS011;7672;50.834;6.286;2023-05-10T15:07:02;2.20;;;2.00;;
15142;SDS011;7672;50.834;6.286;2023-05-10T15:09:29;2.50;;;2.30;;
15142;SDS011;7672;50.834;6.286;2023-05-10T15:11:56;2.80;;;2.00;;
15142;SDS011;7672;50.834;6.286;2023-05-10T15:14:23;1.90;;;1.80;;
15142;SDS011;7672;50.834;6.286;2023-05-10T15:16:50;1.40;;;1.30;;
15142;SDS011;7672;50.834;6.286;2023-05-10T15:19:18;1.50;;;1.40;;
15142;SDS011;7672;50.834;6.286;2023-05-10T15:21:46;0.88;;;0.88;;
15142;SDS011;7672;50.834;6.286;2023-05-10T15:24:13;1.40;;;1.30;;
15142;SDS011;7672;50.834;6.286;2023-05-10T15:26:40;3.33;;;1.58;;
15142;SDS011;7672;50.834;6.286;2023-05-10T15:29:07;2.88;;;2.67;;
15142;SDS011;7672;50.834;6.286;2023-05-10T15:31:35;3.00;;;2.30;;
15142;SDS011;7672;50.834;6.286;2023-05-10T15:34:02;2.83;;;2.63;;